createdAt,value
2019-01-24T00:02:15.839Z,88.75
2019-01-24T00:07:21.053Z,88.82
2019-01-24T00:12:26.648Z,88.56
2019-01-24T00:17:32.234Z,88.56
2019-01-24T00:22:37.812Z,88.57
2019-01-24T00:27:43.004Z,88.47
2019-01-24T00:32:48.519Z,88.31
2019-01-24T00:37:54.146Z,88.19
2019-01-24T00:42:59.401Z,87.89
2019-01-24T00:48:04.890Z,87.91
2019-01-24T00:53:10.089Z,87.80
2019-01-24T00:58:15.932Z,88.00
2019-01-24T01:03:21.127Z,87.49
2019-01-24T01:08:26.850Z,87.41
2019-01-24T01:13:33.017Z,87.77
2019-01-24T01:18:39.011Z,87.54
2019-01-24T01:23:45.552Z,87.93
2019-01-24T01:28:50.736Z,87.51
2019-01-24T01:33:55.927Z,87.71
2019-01-24T01:39:01.496Z,87.56
2019-01-24T01:44:07.059Z,87.81
2019-01-24T01:49:12.248Z,87.34
2019-01-24T01:54:17.448Z,87.17
2019-01-24T01:59:22.980Z,87.18
2019-01-24T02:04:28.285Z,87.70
2019-01-24T02:09:33.778Z,87.42
2019-01-24T02:14:39.000Z,87.46
2019-01-24T02:19:44.222Z,87.63
2019-01-24T02:24:49.430Z,87.48
2019-01-24T02:29:54.633Z,87.85
2019-01-24T02:34:59.824Z,87.98
2019-01-24T02:40:06.368Z,87.91
2019-01-24T02:45:13.962Z,87.73
2019-01-24T02:50:20.769Z,87.50
2019-01-24T02:55:25.959Z,87.44
2019-01-24T03:00:31.215Z,87.63
2019-01-24T03:05:36.704Z,87.37
2019-01-24T03:10:42.036Z,87.43
2019-01-24T03:15:47.703Z,87.53
2019-01-24T03:20:52.908Z,87.46
2019-01-24T03:25:59.189Z,87.57
2019-01-24T03:31:05.033Z,87.35
2019-01-24T03:36:10.261Z,87.54
2019-01-24T03:41:15.451Z,87.49
2019-01-24T03:46:20.643Z,87.72
2019-01-24T03:51:25.837Z,87.68
2019-01-24T03:56:31.031Z,87.82
2019-01-24T04:01:36.223Z,87.39
2019-01-24T04:06:41.431Z,87.44
2019-01-24T04:11:46.741Z,87.64
2019-01-24T04:16:52.309Z,87.64
2019-01-24T04:21:57.512Z,87.78
2019-01-24T04:27:03.158Z,87.79
2019-01-24T04:32:08.352Z,88.05
2019-01-24T04:37:13.536Z,88.25
2019-01-24T04:42:19.736Z,88.38
2019-01-24T04:47:25.340Z,87.66
2019-01-24T04:52:30.900Z,88.02
2019-01-24T04:57:36.253Z,88.26
2019-01-24T05:02:41.466Z,88.04
2019-01-24T05:07:46.664Z,88.16
2019-01-24T05:12:52.993Z,88.39
2019-01-24T05:17:58.593Z,88.52
2019-01-24T05:23:03.800Z,88.37
2019-01-24T05:28:09.005Z,88.44
2019-01-24T05:33:15.041Z,88.68
2019-01-24T05:38:20.235Z,88.60
2019-01-24T05:43:25.727Z,88.84
2019-01-24T05:48:32.723Z,88.91
2019-01-24T05:53:37.925Z,88.61
2019-01-24T05:58:43.528Z,88.89
2019-01-24T06:03:49.042Z,88.49
2019-01-24T06:08:55.034Z,88.40
2019-01-24T06:14:00.255Z,88.36
2019-01-24T06:19:05.681Z,88.16
2019-01-24T06:24:11.244Z,88.35
2019-01-24T06:29:16.569Z,88.54
2019-01-24T06:34:21.775Z,88.46
2019-01-24T06:39:27.071Z,88.73
2019-01-24T06:44:32.213Z,88.77
2019-01-24T06:49:38.562Z,88.92
2019-01-24T06:54:44.041Z,88.82
2019-01-24T06:59:49.318Z,89.04
2019-01-24T07:04:54.536Z,88.97
2019-01-24T07:10:00.152Z,89.08
2019-01-24T07:15:07.072Z,89.10
2019-01-24T07:20:12.831Z,89.30
2019-01-24T07:25:23.657Z,89.10
2019-01-24T07:30:29.260Z,89.26
2019-01-24T07:35:34.468Z,89.36
2019-01-24T07:40:39.943Z,89.19
2019-01-24T07:45:45.152Z,89.13
2019-01-24T07:50:50.454Z,89.18
2019-01-24T07:55:55.687Z,89.03
2019-01-24T08:01:00.884Z,89.18
2019-01-24T08:06:09.256Z,89.23
2019-01-24T08:11:13.556Z,89.41
2019-01-24T08:16:19.156Z,89.24
2019-01-24T08:21:24.555Z,89.61
2019-01-24T08:26:29.756Z,89.37
2019-01-24T08:31:34.998Z,89.58
2019-01-24T08:36:40.320Z,89.72
2019-01-24T08:41:47.618Z,89.54
2019-01-24T08:46:52.819Z,89.96
2019-01-24T08:51:58.584Z,89.64
2019-01-24T08:57:03.777Z,89.45
2019-01-24T09:02:09.092Z,89.25
2019-01-24T09:07:14.302Z,89.11
2019-01-24T09:12:19.540Z,89.27
2019-01-24T09:17:24.954Z,88.95
2019-01-24T09:22:30.524Z,88.78
2019-01-24T09:27:36.052Z,88.46
2019-01-24T09:32:41.388Z,88.72
2019-01-24T09:37:46.588Z,88.48
2019-01-24T09:42:51.808Z,88.31
2019-01-24T09:47:59.467Z,88.22
2019-01-24T09:53:04.678Z,87.93
2019-01-24T09:58:09.952Z,87.76
2019-01-24T10:03:15.943Z,87.29
2019-01-24T10:08:21.504Z,87.00
2019-01-24T10:13:26.708Z,86.56
2019-01-24T10:18:32.141Z,87.04
2019-01-24T10:23:37.715Z,86.16
2019-01-24T10:28:43.023Z,85.96
2019-01-24T10:33:48.688Z,85.98
2019-01-24T10:38:53.885Z,85.44
2019-01-24T10:43:59.449Z,85.11
2019-01-24T10:49:04.754Z,85.17
2019-01-24T10:54:09.959Z,84.69
2019-01-24T10:59:15.425Z,84.23
2019-01-24T11:04:20.719Z,84.14
2019-01-24T11:09:26.348Z,83.67
2019-01-24T11:14:31.571Z,83.51
2019-01-24T11:19:36.814Z,82.14
2019-01-24T11:24:42.033Z,82.76
2019-01-24T11:29:47.678Z,82.19
2019-01-24T11:34:52.910Z,81.95
2019-01-24T11:39:58.123Z,82.40
2019-01-24T11:45:03.324Z,82.17
2019-01-24T11:50:13.062Z,82.44
2019-01-24T11:55:19.667Z,82.09
2019-01-24T12:00:39.556Z,81.20
2019-01-24T12:05:44.759Z,81.25
2019-01-24T12:10:49.970Z,82.26
2019-01-24T12:15:55.202Z,82.24
2019-01-24T12:21:00.395Z,82.82
2019-01-24T12:26:06.080Z,82.25
2019-01-24T12:31:11.365Z,82.76
2019-01-24T12:36:17.253Z,82.68
2019-01-24T12:41:22.488Z,82.13
2019-01-24T12:46:27.987Z,82.84
2019-01-24T12:51:33.194Z,82.92
2019-01-24T12:56:38.523Z,82.82
2019-01-24T13:01:44.038Z,83.04
2019-01-24T13:06:49.240Z,82.80
2019-01-24T13:11:54.442Z,82.92
2019-01-24T13:17:00.079Z,82.99
2019-01-24T13:22:05.779Z,83.36
2019-01-24T13:27:11.357Z,83.62
2019-01-24T13:32:16.579Z,83.52
2019-01-24T13:37:25.792Z,83.79
2019-01-24T13:42:28.687Z,83.49
2019-01-24T13:47:34.267Z,83.33
2019-01-24T13:52:39.470Z,83.61
2019-01-24T13:57:44.782Z,83.67
2019-01-24T14:02:52.247Z,84.21
2019-01-24T14:07:57.500Z,84.75
2019-01-24T14:13:02.737Z,84.90
2019-01-24T14:18:08.086Z,85.27
2019-01-24T14:23:13.288Z,85.24
2019-01-24T14:28:18.513Z,85.74
2019-01-24T14:33:23.868Z,86.18
2019-01-24T14:38:29.139Z,85.98
2019-01-24T14:43:34.776Z,86.01
2019-01-24T14:48:40.108Z,86.01
2019-01-24T14:53:45.305Z,86.16
2019-01-24T14:58:50.508Z,86.16
2019-01-24T15:03:55.832Z,86.38
2019-01-24T15:09:01.068Z,86.47
2019-01-24T15:14:06.576Z,86.60
2019-01-24T15:19:12.511Z,86.48
2019-01-24T15:24:17.861Z,86.74
2019-01-24T15:29:23.478Z,86.81
2019-01-24T15:34:28.691Z,86.88
2019-01-24T15:39:34.204Z,87.09
2019-01-24T15:44:39.875Z,87.42
2019-01-24T15:49:45.079Z,87.26
2019-01-24T15:54:50.640Z,87.84
2019-01-24T15:59:55.897Z,87.68
2019-01-24T16:05:01.746Z,87.92
2019-01-24T16:10:10.419Z,88.16
2019-01-24T16:15:18.547Z,88.17
2019-01-24T16:20:24.818Z,88.41
2019-01-24T16:25:31.596Z,88.42
2019-01-24T16:30:37.563Z,88.57
2019-01-24T16:35:42.911Z,88.51
2019-01-24T16:40:49.068Z,88.93
2019-01-24T16:45:54.663Z,88.93
2019-01-24T16:51:01.225Z,89.04
2019-01-24T16:56:06.651Z,88.98
2019-01-24T17:01:22.236Z,88.98
2019-01-24T17:06:27.443Z,89.13
2019-01-24T17:11:33.055Z,89.11
2019-01-24T17:16:39.428Z,89.24
2019-01-24T17:21:44.639Z,89.25
2019-01-24T17:26:50.211Z,89.32
2019-01-24T17:31:55.888Z,89.36
2019-01-24T17:37:01.324Z,89.30
2019-01-24T17:42:06.850Z,89.27
2019-01-24T17:47:12.043Z,89.20
2019-01-24T17:52:17.455Z,89.25
2019-01-24T17:57:23.117Z,89.28
2019-01-24T18:02:29.184Z,89.13
2019-01-24T18:07:34.454Z,89.05
2019-01-24T18:12:39.910Z,88.89
2019-01-24T18:17:46.475Z,88.91
2019-01-24T18:22:52.082Z,88.75
2019-01-24T18:27:57.272Z,88.42
2019-01-24T18:33:02.477Z,88.40
2019-01-24T18:38:08.642Z,88.61
2019-01-24T18:43:20.655Z,88.66
2019-01-24T18:48:25.902Z,89.00
2019-01-24T18:53:31.451Z,89.01
2019-01-24T18:58:38.235Z,88.96
2019-01-24T19:03:44.594Z,88.78
2019-01-24T19:08:49.871Z,88.69
2019-01-24T19:13:55.084Z,88.79
2019-01-24T19:19:00.310Z,89.07
2019-01-24T19:24:05.626Z,89.21
2019-01-24T19:29:10.833Z,89.39
2019-01-24T19:34:16.051Z,89.30
2019-01-24T19:39:21.408Z,89.44
2019-01-24T19:44:27.693Z,89.56
2019-01-24T19:49:33.110Z,89.60
2019-01-24T19:54:38.313Z,89.54
2019-01-24T19:59:43.519Z,89.57
2019-01-24T20:04:48.735Z,89.55
2019-01-24T20:09:53.939Z,89.53
2019-01-24T20:14:59.343Z,89.38
2019-01-24T20:20:06.435Z,89.40
2019-01-24T20:25:14.044Z,89.62
2019-01-24T20:30:24.219Z,89.86
2019-01-24T20:35:41.169Z,89.71
2019-01-24T20:40:46.666Z,89.57
2019-01-24T20:45:51.867Z,89.69
2019-01-24T20:50:57.358Z,89.69
2019-01-24T20:56:03.663Z,89.71
2019-01-24T21:01:10.011Z,89.53
2019-01-24T21:06:16.251Z,89.50
2019-01-24T21:11:21.819Z,89.45
2019-01-24T21:16:27.042Z,89.15
2019-01-24T21:21:32.244Z,89.13
2019-01-24T21:26:37.891Z,89.21
2019-01-24T21:31:43.409Z,89.19
2019-01-24T21:36:48.612Z,89.13
2019-01-24T21:41:53.814Z,89.10
2019-01-24T21:46:59.485Z,88.98
2019-01-24T21:52:04.903Z,88.98
2019-01-24T21:57:10.104Z,88.98
2019-01-24T22:02:15.708Z,88.96
2019-01-24T22:07:21.392Z,88.88
2019-01-24T22:12:26.915Z,88.92
2019-01-24T22:17:32.847Z,88.92
2019-01-24T22:22:38.776Z,88.95
2019-01-24T22:27:44.620Z,89.02
2019-01-24T22:32:50.314Z,89.02
2019-01-24T22:37:55.691Z,89.15
2019-01-24T22:43:00.898Z,89.01
2019-01-24T22:48:07.461Z,89.17
2019-01-24T22:53:13.049Z,89.21
2019-01-24T22:58:18.537Z,89.24
2019-01-24T23:03:33.150Z,89.22
2019-01-24T23:08:39.250Z,89.28
2019-01-24T23:13:44.536Z,89.20
2019-01-24T23:18:50.411Z,89.05
2019-01-24T23:23:55.948Z,89.17
2019-01-24T23:29:01.643Z,89.05
2019-01-24T23:34:07.407Z,89.09
2019-01-24T23:39:12.608Z,88.95
2019-01-24T23:44:17.803Z,88.97
2019-01-24T23:49:23.771Z,89.02
2019-01-24T23:54:29.331Z,88.94
2019-01-24T23:59:34.662Z,88.96
